Time;durP1;ratioP1;P1;durP2;ratioP2;P2;SDS_P1;SDS_P2;PMS_P1;PMS_P2;Temp;Humidity;BMP_temperature;BMP_pressure;BME280_temperature;BME280_humidity;BME280_pressure;Samples;Min_cycle;Max_cycle;Signal;HPM_P1;HPM_P2
2023/03/26 00:00:39;;;;;;;;;;;25.80;99.90;;;;;;4917252;29;20009;-48
2023/03/26 00:03:05;;;;;;;;;;;25.80;99.90;;;;;;4917575;29;19914;-48
2023/03/26 00:05:31;;;;;;;;;;;25.80;99.90;;;;;;4931971;29;19903;-47
2023/03/26 00:07:57;;;;;;;;;;;25.80;99.90;;;;;;4917550;29;20279;-47
2023/03/26 00:10:24;;;;;;;;;;;25.80;99.90;;;;;;4917624;29;20356;-48
2023/03/26 00:12:50;;;;;;;;;;;25.70;99.90;;;;;;4917304;29;19907;-48
2023/03/26 00:15:16;;;;;;;;;;;25.70;99.90;;;;;;4917453;29;19907;-48
2023/03/26 00:17:45;;;;;;;;;;;25.70;99.90;;;;;;4917183;29;19911;-48
2023/03/26 00:20:11;;;;;;;;;;;25.70;99.90;;;;;;4917222;29;20012;-48
2023/03/26 00:22:38;;;;;;;;;;;25.70;99.90;;;;;;4917248;29;19914;-48
2023/03/26 00:25:05;;;;;;;;;;;25.70;99.90;;;;;;4917082;29;20371;-47
2023/03/26 00:27:31;;;;;;;;;;;25.70;99.90;;;;;;4931606;29;19907;-48
2023/03/26 00:29:58;;;;;;;;;;;25.60;99.90;;;;;;4917159;29;19907;-47
2023/03/26 00:32:26;;;;;;;;;;;25.60;99.90;;;;;;4917038;29;20412;-48
2023/03/26 00:34:55;;;;;;;;;;;25.60;99.90;;;;;;4905209;29;19907;-47
2023/03/26 00:37:25;;;;;;;;;;;25.60;99.90;;;;;;4917037;29;20009;-47
2023/03/26 00:39:58;;;;;;;;;;;25.60;99.90;;;;;;4917222;29;19950;-48
2023/03/26 00:42:27;;;;;;;;;;;25.60;99.90;;;;;;4916736;29;19989;-48
2023/03/26 00:44:56;;;;;;;;;;;25.60;99.90;;;;;;4916872;29;20264;-48
2023/03/26 00:47:26;;;;;;;;;;;25.50;99.90;;;;;;4916979;29;19942;-47
2023/03/26 00:49:51;;;;;;;;;;;25.50;99.90;;;;;;4917014;29;19907;-47
2023/03/26 00:52:20;;;;;;;;;;;25.50;99.90;;;;;;4916841;29;19914;-48
2023/03/26 00:54:46;;;;;;;;;;;25.50;99.90;;;;;;4916840;29;19953;-48
2023/03/26 00:57:12;;;;;;;;;;;25.50;99.90;;;;;;4931239;29;19907;-48
2023/03/26 00:59:38;;;;;;;;;;;25.50;99.90;;;;;;4932335;23;20264;-56
2023/03/26 01:02:05;;;;;;;;;;;25.50;99.90;;;;;;4935640;29;20256;-56
2023/03/26 01:04:33;;;;;;;;;;;25.40;99.90;;;;;;4935555;29;19917;-55
2023/03/26 01:07:13;;;;;;;;;;;25.40;99.90;;;;;;4935618;29;20346;-55
2023/03/26 01:09:41;;;;;;;;;;;25.50;99.90;;;;;;4923312;29;19914;-56
2023/03/26 01:12:09;;;;;;;;;;;25.40;99.90;;;;;;4935507;29;19914;-55
2023/03/26 01:14:36;;;;;;;;;;;25.40;99.90;;;;;;4935360;29;20382;-55
2023/03/26 01:17:03;;;;;;;;;;;25.40;99.90;;;;;;4935470;29;19946;-55
2023/03/26 01:19:43;;;;;;;;;;;25.40;99.90;;;;;;4935286;29;19914;-55
2023/03/26 01:22:11;;;;;;;;;;;25.40;99.90;;;;;;4935192;29;19907;-57
2023/03/26 01:24:38;;;;;;;;;;;25.40;99.90;;;;;;4935541;29;19907;-55
2023/03/26 01:27:24;;;;;;;;;;;25.40;99.90;;;;;;4966124;28;20371;-55
2023/03/26 01:29:53;;;;;;;;;;;25.40;99.90;;;;;;4935297;29;19934;-55
2023/03/26 01:32:25;;;;;;;;;;;25.40;99.90;;;;;;4965919;28;19953;-55
2023/03/26 01:35:06;;;;;;;;;;;25.40;99.90;;;;;;4950188;29;20320;-54
2023/03/26 01:37:40;;;;;;;;;;;25.40;99.90;;;;;;4935080;29;19907;-55
2023/03/26 01:40:10;;;;;;;;;;;25.30;99.90;;;;;;4935135;29;19915;-55
2023/03/26 01:42:40;;;;;;;;;;;25.30;99.90;;;;;;4935260;29;19907;-55
2023/03/26 01:45:12;;;;;;;;;;;25.30;99.90;;;;;;4935241;29;19911;-55
2023/03/26 01:47:39;;;;;;;;;;;25.30;99.90;;;;;;4935118;29;19962;-55
2023/03/26 01:50:05;;;;;;;;;;;25.30;99.90;;;;;;4935172;29;19907;-55
2023/03/26 01:52:30;;;;;;;;;;;25.30;99.90;;;;;;4934866;29;19906;-55
2023/03/26 01:54:56;;;;;;;;;;;25.30;99.90;;;;;;4935273;29;19914;-55
2023/03/26 01:57:25;;;;;;;;;;;25.30;99.90;;;;;;4935629;29;19953;-55
2023/03/26 02:00:00;;;;;;;;;;;25.20;99.90;;;;;;4945273;23;19923;-55
2023/03/26 02:02:26;;;;;;;;;;;25.20;99.90;;;;;;4935165;29;19937;-56
2023/03/26 02:05:10;;;;;;;;;;;25.20;99.90;;;;;;4935072;29;19907;-55
2023/03/26 02:07:57;;;;;;;;;;;25.20;99.90;;;;;;4934997;29;19914;-55
2023/03/26 02:10:27;;;;;;;;;;;25.20;99.90;;;;;;4934957;29;19906;-55
2023/03/26 02:12:53;;;;;;;;;;;25.20;99.90;;;;;;4935070;29;20093;-55
2023/03/26 02:15:19;;;;;;;;;;;25.20;99.90;;;;;;4935979;29;19914;-55
2023/03/26 02:17:45;;;;;;;;;;;25.20;99.90;;;;;;4938934;29;19907;-55
2023/03/26 02:20:13;;;;;;;;;;;25.20;99.90;;;;;;4938716;29;19915;-55
2023/03/26 02:22:44;;;;;;;;;;;25.20;99.90;;;;;;4938239;29;20252;-56
2023/03/26 02:25:11;;;;;;;;;;;25.20;99.90;;;;;;4938596;29;19907;-56
2023/03/26 02:27:37;;;;;;;;;;;25.20;99.90;;;;;;4938214;29;20403;-55
2023/03/26 02:30:04;;;;;;;;;;;25.20;99.90;;;;;;4938463;29;19914;-56
2023/03/26 02:32:30;;;;;;;;;;;25.20;99.90;;;;;;4938510;29;19910;-56
2023/03/26 02:34:56;;;;;;;;;;;25.20;99.90;;;;;;4938172;29;19906;-56
2023/03/26 02:37:21;;;;;;;;;;;25.20;99.90;;;;;;4938102;29;19914;-56
2023/03/26 02:39:47;;;;;;;;;;;25.20;99.90;;;;;;4968903;28;19914;-54
2023/03/26 02:42:14;;;;;;;;;;;25.20;99.90;;;;;;4938430;29;20368;-53
2023/03/26 02:44:40;;;;;;;;;;;25.10;99.90;;;;;;4938143;29;19907;-54
2023/03/26 02:47:06;;;;;;;;;;;25.20;99.90;;;;;;4938075;29;19914;-54
2023/03/26 02:49:32;;;;;;;;;;;25.10;99.90;;;;;;4937987;29;19906;-53
2023/03/26 02:51:58;;;;;;;;;;;25.20;99.90;;;;;;4937856;29;20340;-54
2023/03/26 02:54:24;;;;;;;;;;;25.10;99.90;;;;;;4937752;29;19903;-54
2023/03/26 02:56:50;;;;;;;;;;;25.20;99.90;;;;;;4937824;29;19990;-54
2023/03/26 02:59:15;;;;;;;;;;;25.20;99.90;;;;;;4938209;29;20046;-53
2023/03/26 03:01:44;;;;;;;;;;;25.20;99.90;;;;;;4937797;29;19952;-53
2023/03/26 03:04:10;;;;;;;;;;;25.10;99.90;;;;;;4937506;29;19906;-53
2023/03/26 03:06:37;;;;;;;;;;;25.10;99.90;;;;;;4937679;29;19906;-53
2023/03/26 03:09:07;;;;;;;;;;;25.10;99.90;;;;;;4937453;29;19907;-53
2023/03/26 03:11:33;;;;;;;;;;;25.10;99.90;;;;;;4937752;29;19911;-53
2023/03/26 03:13:59;;;;;;;;;;;25.10;99.90;;;;;;4937271;29;20275;-54
2023/03/26 03:16:25;;;;;;;;;;;25.10;99.90;;;;;;4937543;29;19997;-55
2023/03/26 03:18:55;;;;;;;;;;;25.10;99.90;;;;;;4937285;29;19907;-54
2023/03/26 03:21:21;;;;;;;;;;;25.10;99.90;;;;;;4937458;29;20095;-55
2023/03/26 03:23:47;;;;;;;;;;;25.10;99.90;;;;;;4952239;29;19907;-53
2023/03/26 03:26:14;;;;;;;;;;;25.10;99.90;;;;;;4937224;29;19913;-53
2023/03/26 03:28:40;;;;;;;;;;;25.10;99.90;;;;;;4937178;29;20280;-54
2023/03/26 03:31:07;;;;;;;;;;;25.10;99.90;;;;;;4937052;29;19914;-54
2023/03/26 03:33:33;;;;;;;;;;;25.10;99.90;;;;;;4937115;29;20332;-53
2023/03/26 03:35:59;;;;;;;;;;;25.10;99.90;;;;;;4936870;29;19910;-54
2023/03/26 03:38:24;;;;;;;;;;;25.10;99.90;;;;;;4937034;29;20335;-54
2023/03/26 03:40:52;;;;;;;;;;;25.10;99.90;;;;;;4936717;29;19925;-54
2023/03/26 03:43:17;;;;;;;;;;;25.10;99.90;;;;;;4936127;29;20296;-54
2023/03/26 03:45:43;;;;;;;;;;;25.10;99.90;;;;;;4936875;29;19962;-55
2023/03/26 03:48:08;;;;;;;;;;;25.10;99.90;;;;;;4936904;29;20084;-55
2023/03/26 03:50:34;;;;;;;;;;;25.10;99.90;;;;;;4936591;29;20379;-54
2023/03/26 03:53:00;;;;;;;;;;;25.00;99.90;;;;;;4937052;29;19914;-55
2023/03/26 03:55:26;;;;;;;;;;;25.10;99.90;;;;;;4951503;29;19997;-55
2023/03/26 03:57:52;;;;;;;;;;;25.10;99.90;;;;;;4936737;29;19906;-55
2023/03/26 04:00:18;;;;;;;;;;;25.10;99.90;;;;;;4947512;23;19930;-56
2023/03/26 04:02:45;;;;;;;;;;;25.00;99.90;;;;;;4951540;29;19906;-55
2023/03/26 04:05:11;;;;;;;;;;;25.00;99.90;;;;;;4936616;29;19917;-56
2023/03/26 04:07:37;;;;;;;;;;;25.00;99.90;;;;;;4936353;29;19907;-56
2023/03/26 04:10:03;;;;;;;;;;;25.00;99.90;;;;;;4936556;29;20370;-56
2023/03/26 04:12:29;;;;;;;;;;;25.00;99.90;;;;;;4967146;28;19906;-56
2023/03/26 04:14:55;;;;;;;;;;;25.00;99.90;;;;;;4936473;29;19911;-57
2023/03/26 04:17:21;;;;;;;;;;;25.00;99.90;;;;;;4936358;29;19911;-57
2023/03/26 04:19:49;;;;;;;;;;;25.00;99.90;;;;;;4936401;29;19962;-55
2023/03/26 04:22:17;;;;;;;;;;;25.00;99.90;;;;;;4936152;29;19907;-56
2023/03/26 04:24:42;;;;;;;;;;;25.00;99.90;;;;;;4951006;29;19906;-56
2023/03/26 04:27:16;;;;;;;;;;;25.00;99.90;;;;;;4936252;29;19907;-56
2023/03/26 04:29:44;;;;;;;;;;;25.00;99.90;;;;;;4936182;29;19957;-56
2023/03/26 04:32:21;;;;;;;;;;;25.00;99.90;;;;;;4936168;29;19914;-56
2023/03/26 04:34:46;;;;;;;;;;;25.00;99.90;;;;;;4936374;29;19907;-56
2023/03/26 04:37:20;;;;;;;;;;;25.00;99.90;;;;;;4935768;29;20382;-56
2023/03/26 04:39:45;;;;;;;;;;;25.00;99.90;;;;;;4935702;29;19915;-56
2023/03/26 04:42:11;;;;;;;;;;;25.00;99.90;;;;;;4935869;29;19917;-55
2023/03/26 04:44:36;;;;;;;;;;;24.90;99.90;;;;;;4935924;29;19907;-56
2023/03/26 04:47:02;;;;;;;;;;;25.00;99.90;;;;;;4935896;29;19994;-56
2023/03/26 04:49:27;;;;;;;;;;;25.00;99.90;;;;;;4935744;29;19913;-55
2023/03/26 04:51:53;;;;;;;;;;;25.00;99.90;;;;;;4935850;29;19942;-55
2023/03/26 04:54:20;;;;;;;;;;;25.00;99.90;;;;;;4935862;29;19953;-55
2023/03/26 04:56:46;;;;;;;;;;;25.00;99.90;;;;;;4935662;29;19990;-55
2023/03/26 04:59:35;;;;;;;;;;;24.90;99.90;;;;;;4935439;29;19993;-55
2023/03/26 05:02:02;;;;;;;;;;;24.90;99.90;;;;;;4935645;29;19923;-55
2023/03/26 05:04:30;;;;;;;;;;;24.90;99.90;;;;;;4935417;29;20455;-55
2023/03/26 05:06:57;;;;;;;;;;;24.90;99.90;;;;;;4935671;29;20009;-55
2023/03/26 05:09:23;;;;;;;;;;;24.90;99.90;;;;;;4935528;29;19913;-56
2023/03/26 05:11:49;;;;;;;;;;;24.90;99.90;;;;;;4935797;29;19907;-55
2023/03/26 05:14:15;;;;;;;;;;;24.90;99.90;;;;;;4935561;29;20328;-55
2023/03/26 05:16:41;;;;;;;;;;;24.90;99.90;;;;;;4935353;29;19915;-53
2023/03/26 05:19:07;;;;;;;;;;;24.90;99.90;;;;;;4935323;29;19911;-53
2023/03/26 05:21:33;;;;;;;;;;;24.90;99.90;;;;;;4935273;29;19919;-54
2023/03/26 05:23:59;;;;;;;;;;;24.90;99.90;;;;;;4935078;29;19942;-53
2023/03/26 05:26:25;;;;;;;;;;;24.90;99.90;;;;;;4935405;29;20359;-54
2023/03/26 05:28:50;;;;;;;;;;;24.90;99.90;;;;;;4935601;29;20345;-55
2023/03/26 05:31:22;;;;;;;;;;;24.80;99.90;;;;;;4935192;29;20344;-55
2023/03/26 05:33:48;;;;;;;;;;;24.80;99.90;;;;;;4935244;29;19954;-55
2023/03/26 05:36:14;;;;;;;;;;;24.80;99.90;;;;;;4935094;29;19906;-56
2023/03/26 05:38:41;;;;;;;;;;;24.80;99.90;;;;;;4935262;29;19910;-56
2023/03/26 05:41:08;;;;;;;;;;;24.80;99.90;;;;;;4935075;29;19915;-57
2023/03/26 05:43:34;;;;;;;;;;;24.80;99.90;;;;;;4935348;29;19961;-56
2023/03/26 05:46:00;;;;;;;;;;;24.80;99.90;;;;;;4935147;29;19906;-57
2023/03/26 05:48:26;;;;;;;;;;;24.80;99.90;;;;;;4935178;29;19907;-57
2023/03/26 05:50:52;;;;;;;;;;;24.80;99.90;;;;;;4937353;29;19911;-55
2023/03/26 05:53:19;;;;;;;;;;;24.80;99.90;;;;;;4939020;29;19911;-56
2023/03/26 05:55:45;;;;;;;;;;;24.80;99.90;;;;;;4938889;29;19922;-57
2023/03/26 05:58:11;;;;;;;;;;;24.80;99.90;;;;;;4938960;29;19934;-56
2023/03/26 06:00:37;;;;;;;;;;;24.80;99.90;;;;;;4938613;29;19925;-56
2023/03/26 06:03:03;;;;;;;;;;;24.80;99.90;;;;;;4938791;29;19911;-57
2023/03/26 06:05:36;;;;;;;;;;;24.80;99.90;;;;;;4938776;29;19943;-56
2023/03/26 06:08:02;;;;;;;;;;;24.80;99.90;;;;;;4938679;29;19954;-55
2023/03/26 06:10:27;;;;;;;;;;;24.70;99.90;;;;;;4938800;29;20326;-56
2023/03/26 06:12:53;;;;;;;;;;;24.70;99.90;;;;;;4938939;29;19906;-55
2023/03/26 06:15:19;;;;;;;;;;;24.70;99.90;;;;;;4938465;29;19906;-55
2023/03/26 06:17:44;;;;;;;;;;;24.80;99.90;;;;;;4938339;29;19907;-55
2023/03/26 06:20:11;;;;;;;;;;;24.70;99.90;;;;;;4938708;29;19966;-55
2023/03/26 06:22:36;;;;;;;;;;;24.70;99.90;;;;;;4938259;29;19925;-55
2023/03/26 06:25:02;;;;;;;;;;;24.70;99.90;;;;;;4938643;29;19915;-55
2023/03/26 06:27:28;;;;;;;;;;;24.70;99.90;;;;;;4938312;29;19913;-55
2023/03/26 06:29:53;;;;;;;;;;;24.70;99.90;;;;;;4938531;29;19906;-53
2023/03/26 06:32:19;;;;;;;;;;;24.70;99.90;;;;;;4938359;29;19949;-56
2023/03/26 06:34:45;;;;;;;;;;;24.70;99.90;;;;;;4938233;29;19907;-55
2023/03/26 06:37:10;;;;;;;;;;;24.70;99.90;;;;;;4938145;29;20330;-55
2023/03/26 06:39:36;;;;;;;;;;;24.70;99.90;;;;;;4938066;29;19917;-55
2023/03/26 06:42:02;;;;;;;;;;;24.70;99.90;;;;;;4938101;29;19910;-57
2023/03/26 06:44:27;;;;;;;;;;;24.70;99.90;;;;;;4937887;29;19954;-55
2023/03/26 06:46:53;;;;;;;;;;;24.70;99.90;;;;;;4952794;29;19907;-55
2023/03/26 06:49:19;;;;;;;;;;;24.70;99.90;;;;;;4937812;29;19917;-54
2023/03/26 06:51:46;;;;;;;;;;;24.70;99.90;;;;;;4937910;29;19913;-55
2023/03/26 06:54:12;;;;;;;;;;;24.70;99.90;;;;;;4937646;29;19911;-55
2023/03/26 06:56:37;;;;;;;;;;;24.70;99.90;;;;;;4937854;29;19954;-55
2023/03/26 06:59:03;;;;;;;;;;;24.70;99.90;;;;;;4937750;29;20272;-55
2023/03/26 07:01:29;;;;;;;;;;;24.70;99.90;;;;;;4937372;29;19966;-54
2023/03/26 07:03:55;;;;;;;;;;;24.70;99.90;;;;;;4952555;29;20334;-55
2023/03/26 07:06:21;;;;;;;;;;;24.70;99.90;;;;;;4952339;29;20092;-55
2023/03/26 07:08:46;;;;;;;;;;;24.70;99.90;;;;;;4937596;29;19961;-55
2023/03/26 07:11:12;;;;;;;;;;;24.70;99.90;;;;;;4937607;29;19915;-57
2023/03/26 07:13:38;;;;;;;;;;;24.70;99.90;;;;;;4937564;29;19907;-58
2023/03/26 07:16:05;;;;;;;;;;;24.70;99.90;;;;;;4937450;29;19907;-56
2023/03/26 07:18:31;;;;;;;;;;;24.70;99.90;;;;;;4937439;29;19929;-56
2023/03/26 07:20:56;;;;;;;;;;;24.70;99.90;;;;;;4937648;29;19930;-56
2023/03/26 07:23:22;;;;;;;;;;;24.70;99.90;;;;;;4937327;29;19910;-55
2023/03/26 07:25:48;;;;;;;;;;;24.70;99.90;;;;;;4937532;29;19906;-55
2023/03/26 07:28:17;;;;;;;;;;;24.80;99.90;;;;;;4937091;29;19907;-55
2023/03/26 07:30:57;;;;;;;;;;;24.80;99.90;;;;;;4937269;29;19914;-56
2023/03/26 07:33:45;;;;;;;;;;;24.80;99.90;;;;;;4925515;29;19914;-55
2023/03/26 07:36:31;;;;;;;;;;;24.80;99.90;;;;;;4937326;29;19913;-55
2023/03/26 07:38:59;;;;;;;;;;;24.80;99.90;;;;;;4937312;29;20475;-55
2023/03/26 07:41:51;;;;;;;;;;;24.80;99.90;;;;;;4936943;29;19937;-55
2023/03/26 07:44:31;;;;;;;;;;;24.80;99.90;;;;;;4920964;29;20377;-56
2023/03/26 07:46:59;;;;;;;;;;;24.80;99.90;;;;;;4937033;29;19946;-55
2023/03/26 07:49:25;;;;;;;;;;;24.80;99.90;;;;;;4937029;29;19907;-56
2023/03/26 07:51:51;;;;;;;;;;;24.80;99.90;;;;;;4936655;29;19911;-56
2023/03/26 07:54:17;;;;;;;;;;;24.80;99.90;;;;;;4936766;29;19970;-56
2023/03/26 07:56:42;;;;;;;;;;;24.80;99.90;;;;;;4936954;29;19906;-56
2023/03/26 07:59:14;;;;;;;;;;;24.80;99.90;;;;;;4936644;29;20012;-56
2023/03/26 08:01:49;;;;;;;;;;;24.80;99.90;;;;;;4936390;29;20005;-57
2023/03/26 08:04:24;;;;;;;;;;;24.80;99.90;;;;;;4923413;29;20414;-56
2023/03/26 08:06:55;;;;;;;;;;;24.90;99.90;;;;;;4936342;29;20108;-56
2023/03/26 08:09:39;;;;;;;;;;;24.90;99.90;;;;;;4936584;29;19906;-55
2023/03/26 08:12:13;;;;;;;;;;;24.90;99.90;;;;;;4936013;29;19934;-56
2023/03/26 08:14:57;;;;;;;;;;;24.90;99.90;;;;;;4935972;29;19989;-56
2023/03/26 08:17:49;;;;;;;;;;;24.90;99.90;;;;;;4936054;29;19914;-56
2023/03/26 08:20:34;;;;;;;;;;;24.90;99.90;;;;;;4917562;29;19993;-56
2023/03/26 08:23:01;;;;;;;;;;;24.90;99.90;;;;;;4967182;28;19907;-55
2023/03/26 08:25:31;;;;;;;;;;;24.90;99.90;;;;;;4950724;29;19907;-56
2023/03/26 08:28:03;;;;;;;;;;;24.90;99.90;;;;;;4936092;29;20359;-55
2023/03/26 08:30:29;;;;;;;;;;;24.90;99.90;;;;;;4951036;29;19906;-55
2023/03/26 08:33:01;;;;;;;;;;;25.00;99.90;;;;;;4950823;29;19911;-55
2023/03/26 08:35:27;;;;;;;;;;;25.00;99.90;;;;;;4935846;29;19907;-55
2023/03/26 08:37:52;;;;;;;;;;;24.90;99.90;;;;;;4936013;29;19907;-56
2023/03/26 08:40:44;;;;;;;;;;;24.90;99.90;;;;;;4935859;29;19918;-57
2023/03/26 08:43:24;;;;;;;;;;;25.00;99.90;;;;;;4927924;29;20377;-56
2023/03/26 08:46:00;;;;;;;;;;;25.00;99.90;;;;;;4935824;29;20014;-55
2023/03/26 08:48:31;;;;;;;;;;;25.00;99.90;;;;;;4935873;29;19930;-56
2023/03/26 08:50:57;;;;;;;;;;;25.00;99.90;;;;;;4935526;29;19945;-55
2023/03/26 08:53:41;;;;;;;;;;;25.00;99.90;;;;;;4935712;29;20319;-56
2023/03/26 08:56:11;;;;;;;;;;;25.00;99.90;;;;;;4935685;29;20394;-57
2023/03/26 08:58:55;;;;;;;;;;;25.00;99.90;;;;;;4935656;29;20273;-56
2023/03/26 09:01:27;;;;;;;;;;;25.00;99.90;;;;;;4922715;29;19929;-55
2023/03/26 09:03:56;;;;;;;;;;;25.00;99.90;;;;;;4935358;29;19946;-55
2023/03/26 09:06:40;;;;;;;;;;;25.00;99.90;;;;;;4935669;29;19940;-55
2023/03/26 09:09:06;;;;;;;;;;;25.00;99.90;;;;;;4935413;29;20290;-56
2023/03/26 09:11:50;;;;;;;;;;;25.10;99.90;;;;;;4935742;29;19913;-56
2023/03/26 09:14:34;;;;;;;;;;;25.00;99.90;;;;;;4935319;29;19913;-56
2023/03/26 09:17:06;;;;;;;;;;;25.00;99.90;;;;;;4935213;29;19907;-57
2023/03/26 09:19:43;;;;;;;;;;;25.10;99.90;;;;;;4935526;29;20352;-56
2023/03/26 09:22:41;;;;;;;;;;;25.10;99.90;;;;;;4935399;29;19914;-56
2023/03/26 09:25:06;;;;;;;;;;;25.10;99.90;;;;;;4915110;29;19907;-56
2023/03/26 09:27:38;;;;;;;;;;;25.10;99.90;;;;;;4934882;29;19906;-55
2023/03/26 09:30:23;;;;;;;;;;;25.10;99.90;;;;;;4935460;29;19913;-56
2023/03/26 09:32:48;;;;;;;;;;;25.10;99.90;;;;;;4924881;29;19914;-55
2023/03/26 09:35:14;;;;;;;;;;;25.10;99.90;;;;;;4935170;29;19907;-55
2023/03/26 09:37:58;;;;;;;;;;;25.10;99.90;;;;;;4935106;29;19914;-56
2023/03/26 09:40:35;;;;;;;;;;;25.20;99.90;;;;;;4935195;29;19919;-55
2023/03/26 09:43:00;;;;;;;;;;;25.20;99.90;;;;;;4935420;29;20275;-55
2023/03/26 09:45:48;;;;;;;;;;;25.20;99.90;;;;;;4935216;29;19913;-55
2023/03/26 09:48:23;;;;;;;;;;;25.20;99.90;;;;;;4924610;29;19907;-55
2023/03/26 09:51:02;;;;;;;;;;;25.30;99.90;;;;;;4935266;29;19930;-55
2023/03/26 09:53:42;;;;;;;;;;;25.30;99.90;;;;;;4935156;29;20038;-56
2023/03/26 09:56:23;;;;;;;;;;;25.30;99.90;;;;;;4934987;29;20419;-56
2023/03/26 09:58:55;;;;;;;;;;;25.30;99.90;;;;;;4934974;29;19906;-55
2023/03/26 10:01:21;;;;;;;;;;;25.30;99.90;;;;;;4934820;29;19925;-55
2023/03/26 10:03:57;;;;;;;;;;;25.40;99.90;;;;;;4935076;29;20280;-56
2023/03/26 10:06:35;;;;;;;;;;;25.40;99.90;;;;;;4935006;29;20410;-56
2023/03/26 10:09:21;;;;;;;;;;;25.40;99.90;;;;;;4934843;29;20423;-55
2023/03/26 10:12:04;;;;;;;;;;;25.40;99.90;;;;;;4934902;29;20348;-54
2023/03/26 10:14:39;;;;;;;;;;;25.50;99.90;;;;;;4949429;29;19915;-56
2023/03/26 10:17:25;;;;;;;;;;;25.40;99.90;;;;;;4935001;29;19907;-56
2023/03/26 10:19:53;;;;;;;;;;;25.50;99.90;;;;;;4930954;29;19910;-57
2023/03/26 10:22:19;;;;;;;;;;;25.50;99.90;;;;;;4934762;29;19911;-55
2023/03/26 10:24:44;;;;;;;;;;;25.50;99.90;;;;;;4935005;29;20323;-55
2023/03/26 10:27:35;;;;;;;;;;;25.60;99.90;;;;;;4934924;29;19913;-56
2023/03/26 10:30:13;;;;;;;;;;;25.60;99.90;;;;;;4925095;29;20264;-55
2023/03/26 10:32:47;;;;;;;;;;;25.60;99.90;;;;;;4949554;29;19906;-55
2023/03/26 10:35:22;;;;;;;;;;;25.60;99.90;;;;;;4949406;29;19961;-56
2023/03/26 10:37:48;;;;;;;;;;;25.60;99.90;;;;;;4937871;29;19946;-56
2023/03/26 10:40:29;;;;;;;;;;;25.70;99.90;;;;;;4938160;29;19969;-56
2023/03/26 10:42:57;;;;;;;;;;;25.70;99.90;;;;;;4938165;29;19914;-56
2023/03/26 10:45:41;;;;;;;;;;;25.70;99.90;;;;;;4937889;29;19907;-55
2023/03/26 10:48:07;;;;;;;;;;;25.70;99.90;;;;;;4927467;29;19993;-55
2023/03/26 10:50:38;;;;;;;;;;;25.80;99.90;;;;;;4952704;29;19947;-55
2023/03/26 10:53:11;;;;;;;;;;;25.80;99.90;;;;;;4925298;29;19907;-56
2023/03/26 10:55:38;;;;;;;;;;;25.80;99.90;;;;;;4938088;29;19913;-56
2023/03/26 10:58:22;;;;;;;;;;;25.80;99.90;;;;;;4937886;29;19998;-55
2023/03/26 11:00:56;;;;;;;;;;;25.90;99.90;;;;;;4937492;29;19918;-57
2023/03/26 11:03:42;;;;;;;;;;;25.90;99.90;;;;;;4968682;28;20367;-56
2023/03/26 11:06:34;;;;;;;;;;;25.90;99.90;;;;;;4937721;29;19957;-57
2023/03/26 11:09:19;;;;;;;;;;;25.90;99.90;;;;;;4921592;29;19911;-54
2023/03/26 11:11:47;;;;;;;;;;;26.00;99.90;;;;;;4927288;29;19906;-55
2023/03/26 11:14:25;;;;;;;;;;;26.00;99.90;;;;;;4937299;29;19907;-55
2023/03/26 11:16:54;;;;;;;;;;;26.00;99.90;;;;;;4937588;29;20271;-54
2023/03/26 11:19:19;;;;;;;;;;;26.10;99.90;;;;;;4952049;29;19980;-56
2023/03/26 11:21:48;;;;;;;;;;;26.10;99.90;;;;;;4937322;29;19915;-55
2023/03/26 11:24:35;;;;;;;;;;;26.10;99.90;;;;;;4937150;29;19998;-55
2023/03/26 11:27:11;;;;;;;;;;;26.10;99.90;;;;;;4937238;29;19907;-55
2023/03/26 11:29:56;;;;;;;;;;;26.20;99.90;;;;;;4937181;29;20348;-56
2023/03/26 11:32:37;;;;;;;;;;;26.20;99.90;;;;;;4937331;29;19994;-55
2023/03/26 11:35:23;;;;;;;;;;;26.20;99.90;;;;;;4937282;29;19917;-56
2023/03/26 11:37:53;;;;;;;;;;;26.20;99.90;;;;;;4936748;29;20422;-56
2023/03/26 11:40:28;;;;;;;;;;;26.20;99.90;;;;;;4936959;29;19915;-56
2023/03/26 11:42:59;;;;;;;;;;;26.30;99.90;;;;;;4936955;29;19913;-56
2023/03/26 11:45:26;;;;;;;;;;;26.30;99.90;;;;;;4937105;29;19907;-56
2023/03/26 11:47:55;;;;;;;;;;;26.30;99.90;;;;;;4935712;29;19907;-57
2023/03/26 11:50:24;;;;;;;;;;;26.30;99.90;;;;;;4936975;29;20348;-55
2023/03/26 11:52:50;;;;;;;;;;;26.40;99.90;;;;;;4936768;29;19907;-55
2023/03/26 11:55:15;;;;;;;;;;;26.40;99.90;;;;;;4936860;29;19929;-56
2023/03/26 11:57:44;;;;;;;;;;;26.40;99.90;;;;;;4935546;29;19921;-56
2023/03/26 12:00:16;;;;;;;;;;;26.40;99.90;;;;;;4936643;29;20409;-56
2023/03/26 12:02:41;;;;;;;;;;;26.40;99.90;;;;;;4936728;29;19989;-56
2023/03/26 12:05:19;;;;;;;;;;;26.40;99.90;;;;;;4936640;29;20397;-56
2023/03/26 12:08:16;;;;;;;;;;;26.50;99.90;;;;;;4936590;29;19906;-56
2023/03/26 12:10:42;;;;;;;;;;;26.40;99.90;;;;;;4936800;29;19911;-56
2023/03/26 12:13:36;;;;;;;;;;;26.50;99.90;;;;;;4936614;29;20374;-56
2023/03/26 12:16:09;;;;;;;;;;;26.50;99.90;;;;;;4935466;29;19929;-57
2023/03/26 12:18:35;;;;;;;;;;;26.50;99.90;;;;;;4936332;29;19914;-56
2023/03/26 12:21:04;;;;;;;;;;;26.60;99.90;;;;;;4936369;29;20380;-56
2023/03/26 12:23:56;;;;;;;;;;;26.50;99.90;;;;;;4936432;29;19949;-57
2023/03/26 12:26:40;;;;;;;;;;;26.50;99.90;;;;;;4933389;29;19917;-56
2023/03/26 12:29:08;;;;;;;;;;;26.50;99.90;;;;;;4936100;29;19907;-56
2023/03/26 12:31:47;;;;;;;;;;;26.60;99.90;;;;;;4936247;29;19942;-56
2023/03/26 12:34:14;;;;;;;;;;;26.60;99.90;;;;;;4936017;29;20422;-56
2023/03/26 12:36:46;;;;;;;;;;;26.60;99.90;;;;;;4936059;29;19906;-57
2023/03/26 12:39:29;;;;;;;;;;;26.70;99.90;;;;;;4935995;29;19914;-56
2023/03/26 12:41:56;;;;;;;;;;;26.60;99.90;;;;;;4935912;29;19950;-56
2023/03/26 12:44:27;;;;;;;;;;;26.70;99.90;;;;;;4935995;29;20290;-55
2023/03/26 12:47:08;;;;;;;;;;;26.70;99.90;;;;;;4935865;29;19910;-55
2023/03/26 12:49:35;;;;;;;;;;;26.70;99.90;;;;;;4935583;29;19907;-56
2023/03/26 12:52:13;;;;;;;;;;;26.70;99.90;;;;;;4935889;29;20006;-56
2023/03/26 12:54:43;;;;;;;;;;;26.70;99.90;;;;;;4935620;29;19914;-54
2023/03/26 12:57:11;;;;;;;;;;;26.70;99.90;;;;;;4935781;29;19906;-55
2023/03/26 12:59:37;;;;;;;;;;;26.80;99.90;;;;;;4935262;29;19915;-55
2023/03/26 13:02:18;;;;;;;;;;;26.80;99.90;;;;;;4935670;29;19911;-57
2023/03/26 13:04:47;;;;;;;;;;;26.80;99.90;;;;;;4935852;29;20241;-55
2023/03/26 13:07:32;;;;;;;;;;;26.80;99.90;;;;;;4935910;29;19907;-55
2023/03/26 13:10:02;;;;;;;;;;;26.90;99.90;;;;;;4923904;29;19907;-55
2023/03/26 13:12:30;;;;;;;;;;;26.80;99.90;;;;;;4935314;29;19906;-55
2023/03/26 13:14:59;;;;;;;;;;;26.80;99.90;;;;;;4935585;29;19971;-55
2023/03/26 13:17:47;;;;;;;;;;;26.90;99.90;;;;;;4935347;29;20363;-55
2023/03/26 13:20:22;;;;;;;;;;;26.90;99.90;;;;;;4935603;29;20291;-57
2023/03/26 13:22:57;;;;;;;;;;;26.90;99.90;;;;;;4935386;29;19906;-55
2023/03/26 13:25:43;;;;;;;;;;;26.90;99.90;;;;;;4935411;29;20236;-56
2023/03/26 13:28:30;;;;;;;;;;;26.90;99.90;;;;;;4924395;29;19914;-56
2023/03/26 13:30:55;;;;;;;;;;;27.00;99.90;;;;;;4935049;29;19918;-55
2023/03/26 13:33:30;;;;;;;;;;;27.00;99.90;;;;;;4935206;29;19991;-55
2023/03/26 13:36:01;;;;;;;;;;;27.00;99.90;;;;;;4935223;29;19917;-54
2023/03/26 13:38:30;;;;;;;;;;;27.00;99.90;;;;;;4935374;29;20259;-55
2023/03/26 13:40:56;;;;;;;;;;;27.00;99.90;;;;;;4935014;29;20014;-55
2023/03/26 13:43:43;;;;;;;;;;;27.00;99.90;;;;;;4935173;29;20371;-55
2023/03/26 13:46:24;;;;;;;;;;;27.00;99.90;;;;;;4935120;29;19907;-55
2023/03/26 13:48:53;;;;;;;;;;;27.00;99.90;;;;;;4935209;29;19954;-56
2023/03/26 13:51:31;;;;;;;;;;;27.00;99.90;;;;;;4935380;29;19914;-56
2023/03/26 13:54:05;;;;;;;;;;;27.00;99.90;;;;;;4935076;29;20001;-57
2023/03/26 13:56:35;;;;;;;;;;;27.00;99.90;;;;;;4935150;29;19907;-56
2023/03/26 13:59:04;;;;;;;;;;;27.00;99.90;;;;;;4934877;29;19911;-56
2023/03/26 14:01:35;;;;;;;;;;;27.00;99.90;;;;;;4934981;29;19970;-55
2023/03/26 14:04:03;;;;;;;;;;;27.00;99.90;;;;;;4935085;29;19930;-56
2023/03/26 14:06:28;;;;;;;;;;;27.00;99.90;;;;;;4935111;29;19906;-56
2023/03/26 14:09:01;;;;;;;;;;;27.10;99.90;;;;;;4949431;29;19906;-55
2023/03/26 14:11:44;;;;;;;;;;;27.10;99.90;;;;;;4936343;29;19914;-55
2023/03/26 14:14:16;;;;;;;;;;;27.10;99.90;;;;;;4938652;29;19907;-56
2023/03/26 14:16:45;;;;;;;;;;;27.10;99.90;;;;;;4939142;29;20001;-56
2023/03/26 14:19:30;;;;;;;;;;;27.10;99.90;;;;;;4953202;29;20480;-56
2023/03/26 14:22:11;;;;;;;;;;;27.10;99.90;;;;;;4938518;29;19914;-56
2023/03/26 14:24:39;;;;;;;;;;;27.10;99.90;;;;;;4925908;29;20067;-55
2023/03/26 14:27:18;;;;;;;;;;;27.10;99.90;;;;;;4938387;29;19907;-55
2023/03/26 14:29:53;;;;;;;;;;;27.10;99.90;;;;;;4938395;29;20320;-54
2023/03/26 14:32:28;;;;;;;;;;;27.10;99.90;;;;;;4938522;29;20320;-55
2023/03/26 14:34:54;;;;;;;;;;;27.10;99.90;;;;;;4938354;29;19914;-55
2023/03/26 14:37:25;;;;;;;;;;;27.10;99.90;;;;;;4938501;29;19907;-55